sensor_id;sensor_type;location;lat;lon;timestamp;temperature;humidity
17284;DHT22;8760;52.248;20.952;2023-04-03T00:00:37;2.50;99.90
17284;DHT22;8760;52.248;20.952;2023-04-03T00:03:04;2.50;99.90
17284;DHT22;8760;52.248;20.952;2023-04-03T00:05:31;2.40;99.90
17284;DHT22;8760;52.248;20.952;2023-04-03T00:07:58;2.40;99.90
17284;DHT22;8760;52.248;20.952;2023-04-03T00:10:26;2.30;99.90
17284;DHT22;8760;52.248;20.952;2023-04-03T00:12:53;2.30;99.90
17284;DHT22;8760;52.248;20.952;2023-04-03T00:15:20;2.20;99.90
17284;DHT22;8760;52.248;20.952;2023-04-03T00:17:47;2.20;99.90
17284;DHT22;8760;52.248;20.952;2023-04-03T00:20:14;2.20;99.90
17284;DHT22;8760;52.248;20.952;2023-04-03T00:22:41;2.10;99.90
17284;DHT22;8760;52.248;20.952;2023-04-03T00:25:09;2.10;99.90
17284;DHT22;8760;52.248;20.952;2023-04-03T00:27:38;2.00;99.90
17284;DHT22;8760;52.248;20.952;2023-04-03T00:30:07;2.00;99.90
17284;DHT22;8760;52.248;20.952;2023-04-03T00:32:35;1.90;99.90
17284;DHT22;8760;52.248;20.952;2023-04-03T00:35:02;1.90;99.90
17284;DHT22;8760;52.248;20.952;2023-04-03T00:37:29;1.80;99.90
17284;DHT22;8760;52.248;20.952;2023-04-03T00:39:56;1.80;1.00
17284;DHT22;8760;52.248;20.952;2023-04-03T00:42:23;1.70;1.00
17284;DHT22;8760;52.248;20.952;2023-04-03T00:45:28;1.60;1.00
17284;DHT22;8760;52.248;20.952;2023-04-03T00:47:55;1.60;1.00
17284;DHT22;8760;52.248;20.952;2023-04-03T00:50:26;1.60;1.00
17284;DHT22;8760;52.248;20.952;2023-04-03T00:52:54;1.50;1.00
17284;DHT22;8760;52.248;20.952;2023-04-03T00:55:22;1.60;1.00
17284;DHT22;8760;52.248;20.952;2023-04-03T00:57:50;1.40;1.00
17284;DHT22;8760;52.248;20.952;2023-04-03T01:00:21;1.40;1.00
17284;DHT22;8760;52.248;20.952;2023-04-03T01:02:51;1.40;1.00
17284;DHT22;8760;52.248;20.952;2023-04-03T01:05:20;1.40;1.00
17284;DHT22;8760;52.248;20.952;2023-04-03T01:07:48;1.30;1.00
17284;DHT22;8760;52.248;20.952;2023-04-03T01:10:17;1.30;1.00
17284;DHT22;8760;52.248;20.952;2023-04-03T01:12:46;1.30;1.00
17284;DHT22;8760;52.248;20.952;2023-04-03T01:15:16;1.20;1.00
17284;DHT22;8760;52.248;20.952;2023-04-03T01:17:45;1.20;1.00
17284;DHT22;8760;52.248;20.952;2023-04-03T01:23:25;1.20;99.90
17284;DHT22;8760;52.248;20.952;2023-04-03T01:25:56;1.20;1.00
17284;DHT22;8760;52.248;20.952;2023-04-03T01:28:24;1.20;99.90
17284;DHT22;8760;52.248;20.952;2023-04-03T01:30:58;1.20;99.90
17284;DHT22;8760;52.248;20.952;2023-04-03T01:33:28;1.10;1.00
17284;DHT22;8760;52.248;20.952;2023-04-03T01:35:56;1.10;99.90
17284;DHT22;8760;52.248;20.952;2023-04-03T01:38:23;1.10;99.90
17284;DHT22;8760;52.248;20.952;2023-04-03T01:40:50;1.00;1.00
17284;DHT22;8760;52.248;20.952;2023-04-03T01:43:17;1.00;1.00
17284;DHT22;8760;52.248;20.952;2023-04-03T01:45:44;1.00;1.00
17284;DHT22;8760;52.248;20.952;2023-04-03T01:48:12;0.90;1.00
17284;DHT22;8760;52.248;20.952;2023-04-03T01:50:40;1.00;1.00
17284;DHT22;8760;52.248;20.952;2023-04-03T01:53:08;0.90;1.00
17284;DHT22;8760;52.248;20.952;2023-04-03T01:55:35;0.90;1.00
17284;DHT22;8760;52.248;20.952;2023-04-03T01:58:02;0.90;1.00
17284;DHT22;8760;52.248;20.952;2023-04-03T02:00:29;0.80;1.00
17284;DHT22;8760;52.248;20.952;2023-04-03T02:02:56;0.80;1.00
17284;DHT22;8760;52.248;20.952;2023-04-03T02:05:23;0.70;1.00
17284;DHT22;8760;52.248;20.952;2023-04-03T02:07:51;0.70;1.00
17284;DHT22;8760;52.248;20.952;2023-04-03T02:10:18;0.70;1.00
17284;DHT22;8760;52.248;20.952;2023-04-03T02:12:45;0.70;1.00
17284;DHT22;8760;52.248;20.952;2023-04-03T02:15:12;0.70;1.00
17284;DHT22;8760;52.248;20.952;2023-04-03T02:17:39;0.60;1.00
17284;DHT22;8760;52.248;20.952;2023-04-03T02:20:07;0.60;1.00
17284;DHT22;8760;52.248;20.952;2023-04-03T02:22:34;0.60;1.00
17284;DHT22;8760;52.248;20.952;2023-04-03T02:25:03;0.60;1.00
17284;DHT22;8760;52.248;20.952;2023-04-03T02:27:30;0.60;1.00
17284;DHT22;8760;52.248;20.952;2023-04-03T02:29:57;0.60;1.00
17284;DHT22;8760;52.248;20.952;2023-04-03T02:32:24;0.50;1.00
17284;DHT22;8760;52.248;20.952;2023-04-03T02:34:51;0.60;1.00
17284;DHT22;8760;52.248;20.952;2023-04-03T02:37:18;0.50;1.00
17284;DHT22;8760;52.248;20.952;2023-04-03T02:39:45;0.50;1.00
17284;DHT22;8760;52.248;20.952;2023-04-03T02:42:13;0.40;1.00
17284;DHT22;8760;52.248;20.952;2023-04-03T02:44:40;0.40;1.00
17284;DHT22;8760;52.248;20.952;2023-04-03T02:47:07;0.50;1.00
17284;DHT22;8760;52.248;20.952;2023-04-03T02:49:34;0.40;1.00
17284;DHT22;8760;52.248;20.952;2023-04-03T02:52:01;0.40;1.00
17284;DHT22;8760;52.248;20.952;2023-04-03T02:54:28;0.30;1.00
17284;DHT22;8760;52.248;20.952;2023-04-03T02:56:56;0.30;99.90
17284;DHT22;8760;52.248;20.952;2023-04-03T02:59:25;0.30;99.90
17284;DHT22;8760;52.248;20.952;2023-04-03T03:01:52;0.30;21.50
17284;DHT22;8760;52.248;20.952;2023-04-03T03:04:19;0.30;99.90
17284;DHT22;8760;52.248;20.952;2023-04-03T03:06:46;0.20;67.80
17284;DHT22;8760;52.248;20.952;2023-04-03T03:09:14;0.20;99.90
17284;DHT22;8760;52.248;20.952;2023-04-03T03:11:41;0.20;99.90
17284;DHT22;8760;52.248;20.952;2023-04-03T03:14:08;0.20;99.90
17284;DHT22;8760;52.248;20.952;2023-04-03T03:16:36;0.10;99.90
17284;DHT22;8760;52.248;20.952;2023-04-03T03:19:03;0.10;99.90
17284;DHT22;8760;52.248;20.952;2023-04-03T03:21:30;0.10;99.90
17284;DHT22;8760;52.248;20.952;2023-04-03T03:23:57;0.10;99.90
17284;DHT22;8760;52.248;20.952;2023-04-03T03:26:24;0.10;1.00
17284;DHT22;8760;52.248;20.952;2023-04-03T03:28:51;0.10;99.90
17284;DHT22;8760;52.248;20.952;2023-04-03T03:31:18;0.10;99.90
17284;DHT22;8760;52.248;20.952;2023-04-03T03:33:47;0.00;99.90
17284;DHT22;8760;52.248;20.952;2023-04-03T03:36:14;0.00;99.90
17284;DHT22;8760;52.248;20.952;2023-04-03T03:38:41;0.00;1.00
17284;DHT22;8760;52.248;20.952;2023-04-03T03:41:08;0.00;1.00
17284;DHT22;8760;52.248;20.952;2023-04-03T03:43:35;-0.10;1.00
17284;DHT22;8760;52.248;20.952;2023-04-03T03:46:02;-0.10;99.90
17284;DHT22;8760;52.248;20.952;2023-04-03T03:48:29;-0.10;99.90
17284;DHT22;8760;52.248;20.952;2023-04-03T03:50:57;-0.10;1.00
17284;DHT22;8760;52.248;20.952;2023-04-03T03:53:24;-0.20;1.00
17284;DHT22;8760;52.248;20.952;2023-04-03T03:55:51;-0.20;99.90
17284;DHT22;8760;52.248;20.952;2023-04-03T03:58:18;-0.20;1.00
17284;DHT22;8760;52.248;20.952;2023-04-03T04:00:45;-0.20;1.00
17284;DHT22;8760;52.248;20.952;2023-04-03T04:03:12;-0.20;1.00
17284;DHT22;8760;52.248;20.952;2023-04-03T04:05:39;-0.20;1.00
17284;DHT22;8760;52.248;20.952;2023-04-03T04:08:07;-0.20;1.00
17284;DHT22;8760;52.248;20.952;2023-04-03T04:10:34;-0.20;1.00
17284;DHT22;8760;52.248;20.952;2023-04-03T04:13:02;-0.30;1.00
17284;DHT22;8760;52.248;20.952;2023-04-03T04:15:29;-0.30;1.00
17284;DHT22;8760;52.248;20.952;2023-04-03T04:17:56;-0.30;16.80
17284;DHT22;8760;52.248;20.952;2023-04-03T04:20:23;-0.30;1.00
17284;DHT22;8760;52.248;20.952;2023-04-03T04:22:50;-0.40;1.00
17284;DHT22;8760;52.248;20.952;2023-04-03T04:25:19;-0.30;1.00
17284;DHT22;8760;52.248;20.952;2023-04-03T04:27:45;-0.30;99.90
17284;DHT22;8760;52.248;20.952;2023-04-03T04:30:13;-0.40;99.90
17284;DHT22;8760;52.248;20.952;2023-04-03T04:32:40;-0.30;1.00
17284;DHT22;8760;52.248;20.952;2023-04-03T04:35:07;-0.30;99.90
17284;DHT22;8760;52.248;20.952;2023-04-03T04:37:35;-0.40;99.90
17284;DHT22;8760;52.248;20.952;2023-04-03T04:40:02;-0.30;99.90
17284;DHT22;8760;52.248;20.952;2023-04-03T04:42:30;-0.40;99.90
17284;DHT22;8760;52.248;20.952;2023-04-03T04:44:57;-0.30;99.90
17284;DHT22;8760;52.248;20.952;2023-04-03T04:47:24;-0.40;1.00
17284;DHT22;8760;52.248;20.952;2023-04-03T04:49:51;-0.30;1.00
17284;DHT22;8760;52.248;20.952;2023-04-03T04:52:17;-0.20;1.00
17284;DHT22;8760;52.248;20.952;2023-04-03T04:54:45;-0.20;1.00
17284;DHT22;8760;52.248;20.952;2023-04-03T04:57:11;-0.20;1.00
17284;DHT22;8760;52.248;20.952;2023-04-03T04:59:40;-0.20;1.00
17284;DHT22;8760;52.248;20.952;2023-04-03T05:02:07;-0.20;1.00
17284;DHT22;8760;52.248;20.952;2023-04-03T05:04:34;-0.10;1.00
17284;DHT22;8760;52.248;20.952;2023-04-03T05:07:00;-0.10;1.00
17284;DHT22;8760;52.248;20.952;2023-04-03T05:09:27;0.00;1.00
17284;DHT22;8760;52.248;20.952;2023-04-03T05:11:54;0.10;1.00
17284;DHT22;8760;52.248;20.952;2023-04-03T05:14:21;0.10;1.00
17284;DHT22;8760;52.248;20.952;2023-04-03T05:16:50;0.20;99.90
17284;DHT22;8760;52.248;20.952;2023-04-03T05:19:19;0.30;99.90
17284;DHT22;8760;52.248;20.952;2023-04-03T05:21:46;0.30;99.90
17284;DHT22;8760;52.248;20.952;2023-04-03T05:24:13;0.40;99.90
17284;DHT22;8760;52.248;20.952;2023-04-03T05:26:41;0.40;63.70
17284;DHT22;8760;52.248;20.952;2023-04-03T05:29:08;0.50;1.00
17284;DHT22;8760;52.248;20.952;2023-04-03T05:31:35;0.60;99.90
17284;DHT22;8760;52.248;20.952;2023-04-03T05:34:03;0.70;9.40
17284;DHT22;8760;52.248;20.952;2023-04-03T05:36:30;0.80;1.00
17284;DHT22;8760;52.248;20.952;2023-04-03T05:38:57;1.00;1.00
17284;DHT22;8760;52.248;20.952;2023-04-03T05:41:24;1.00;1.00
17284;DHT22;8760;52.248;20.952;2023-04-03T05:43:51;1.00;99.90
17284;DHT22;8760;52.248;20.952;2023-04-03T05:46:19;1.00;99.90
17284;DHT22;8760;52.248;20.952;2023-04-03T05:48:47;1.00;1.00
17284;DHT22;8760;52.248;20.952;2023-04-03T05:51:17;1.00;99.90
17284;DHT22;8760;52.248;20.952;2023-04-03T05:53:45;0.90;99.90
17284;DHT22;8760;52.248;20.952;2023-04-03T05:56:13;0.90;99.90
17284;DHT22;8760;52.248;20.952;2023-04-03T05:58:40;0.90;99.90
17284;DHT22;8760;52.248;20.952;2023-04-03T06:01:07;0.90;99.90
17284;DHT22;8760;52.248;20.952;2023-04-03T06:03:34;1.00;99.90
17284;DHT22;8760;52.248;20.952;2023-04-03T06:06:04;0.90;99.90
17284;DHT22;8760;52.248;20.952;2023-04-03T06:08:32;1.00;99.90
17284;DHT22;8760;52.248;20.952;2023-04-03T06:11:00;1.10;99.90
17284;DHT22;8760;52.248;20.952;2023-04-03T06:13:28;1.40;99.90
17284;DHT22;8760;52.248;20.952;2023-04-03T06:15:55;1.50;99.90
17284;DHT22;8760;52.248;20.952;2023-04-03T06:18:24;1.50;99.90
17284;DHT22;8760;52.248;20.952;2023-04-03T06:20:50;1.50;99.90
17284;DHT22;8760;52.248;20.952;2023-04-03T06:23:17;1.40;99.90
17284;DHT22;8760;52.248;20.952;2023-04-03T06:25:46;1.40;99.90
17284;DHT22;8760;52.248;20.952;2023-04-03T06:28:13;1.50;99.90
17284;DHT22;8760;52.248;20.952;2023-04-03T06:30:40;1.60;99.90
17284;DHT22;8760;52.248;20.952;2023-04-03T06:33:07;1.80;99.90
17284;DHT22;8760;52.248;20.952;2023-04-03T06:35:34;2.10;82.10
17284;DHT22;8760;52.248;20.952;2023-04-03T06:38:02;2.40;22.20
17284;DHT22;8760;52.248;20.952;2023-04-03T06:40:33;2.90;1.00
17284;DHT22;8760;52.248;20.952;2023-04-03T06:43:01;3.20;1.00
17284;DHT22;8760;52.248;20.952;2023-04-03T06:45:28;3.50;1.00
17284;DHT22;8760;52.248;20.952;2023-04-03T06:47:55;3.80;1.00
17284;DHT22;8760;52.248;20.952;2023-04-03T06:50:22;4.20;1.00
17284;DHT22;8760;52.248;20.952;2023-04-03T06:52:49;4.50;1.00
17284;DHT22;8760;52.248;20.952;2023-04-03T06:55:16;5.00;1.00
17284;DHT22;8760;52.248;20.952;2023-04-03T06:57:43;5.20;1.00
17284;DHT22;8760;52.248;20.952;2023-04-03T07:00:13;5.70;1.00
17284;DHT22;8760;52.248;20.952;2023-04-03T07:02:41;5.80;1.00
17284;DHT22;8760;52.248;20.952;2023-04-03T07:05:09;6.10;99.90
17284;DHT22;8760;52.248;20.952;2023-04-03T07:07:36;6.40;99.90
17284;DHT22;8760;52.248;20.952;2023-04-03T07:10:04;6.60;99.90
17284;DHT22;8760;52.248;20.952;2023-04-03T07:12:32;7.10;99.90
17284;DHT22;8760;52.248;20.952;2023-04-03T07:14:59;7.40;99.90
17284;DHT22;8760;52.248;20.952;2023-04-03T07:17:27;7.50;99.90
17284;DHT22;8760;52.248;20.952;2023-04-03T07:19:54;7.70;99.90
17284;DHT22;8760;52.248;20.952;2023-04-03T07:22:21;7.70;99.90
17284;DHT22;8760;52.248;20.952;2023-04-03T07:24:48;8.20;99.90
17284;DHT22;8760;52.248;20.952;2023-04-03T07:27:15;8.20;99.90
17284;DHT22;8760;52.248;20.952;2023-04-03T07:29:43;8.40;99.90
17284;DHT22;8760;52.248;20.952;2023-04-03T07:32:10;8.40;99.90
17284;DHT22;8760;52.248;20.952;2023-04-03T07:34:39;8.40;99.90
17284;DHT22;8760;52.248;20.952;2023-04-03T07:37:06;8.80;99.90
17284;DHT22;8760;52.248;20.952;2023-04-03T07:39:34;8.90;99.90
17284;DHT22;8760;52.248;20.952;2023-04-03T07:42:02;9.20;99.90
17284;DHT22;8760;52.248;20.952;2023-04-03T07:44:29;9.30;99.90
17284;DHT22;8760;52.248;20.952;2023-04-03T07:46:56;9.50;99.90
17284;DHT22;8760;52.248;20.952;2023-04-03T07:49:23;9.60;99.90
17284;DHT22;8760;52.248;20.952;2023-04-03T07:51:53;9.70;99.90
17284;DHT22;8760;52.248;20.952;2023-04-03T07:54:20;9.70;99.90
17284;DHT22;8760;52.248;20.952;2023-04-03T07:56:48;9.90;99.90
17284;DHT22;8760;52.248;20.952;2023-04-03T07:59:15;10.00;99.90
17284;DHT22;8760;52.248;20.952;2023-04-03T08:01:42;10.00;99.90
17284;DHT22;8760;52.248;20.952;2023-04-03T08:04:09;9.50;99.90
17284;DHT22;8760;52.248;20.952;2023-04-03T08:06:36;9.20;99.90
17284;DHT22;8760;52.248;20.952;2023-04-03T08:09:05;9.40;99.90
17284;DHT22;8760;52.248;20.952;2023-04-03T08:11:32;9.40;99.90
17284;DHT22;8760;52.248;20.952;2023-04-03T08:13:59;9.20;99.90
17284;DHT22;8760;52.248;20.952;2023-04-03T08:16:27;9.30;99.90
17284;DHT22;8760;52.248;20.952;2023-04-03T08:18:54;9.80;99.90
17284;DHT22;8760;52.248;20.952;2023-04-03T08:21:21;10.00;99.90
17284;DHT22;8760;52.248;20.952;2023-04-03T08:23:49;10.40;99.90
17284;DHT22;8760;52.248;20.952;2023-04-03T08:26:20;10.50;99.90
17284;DHT22;8760;52.248;20.952;2023-04-03T08:28:47;10.60;99.90
17284;DHT22;8760;52.248;20.952;2023-04-03T08:31:16;10.50;99.90
17284;DHT22;8760;52.248;20.952;2023-04-03T08:33:44;10.30;99.90
17284;DHT22;8760;52.248;20.952;2023-04-03T08:36:19;10.30;99.90
17284;DHT22;8760;52.248;20.952;2023-04-03T08:38:47;10.80;99.90
17284;DHT22;8760;52.248;20.952;2023-04-03T08:41:19;11.20;99.90
17284;DHT22;8760;52.248;20.952;2023-04-03T08:43:58;11.50;99.90
17284;DHT22;8760;52.248;20.952;2023-04-03T08:46:45;11.70;99.90
17284;DHT22;8760;52.248;20.952;2023-04-03T08:49:21;12.40;99.90
17284;DHT22;8760;52.248;20.952;2023-04-03T08:51:50;12.90;99.90
17284;DHT22;8760;52.248;20.952;2023-04-03T08:54:26;12.40;99.90
17284;DHT22;8760;52.248;20.952;2023-04-03T08:56:56;12.00;99.90
17284;DHT22;8760;52.248;20.952;2023-04-03T08:59:28;12.00;99.70
17284;DHT22;8760;52.248;20.952;2023-04-03T09:01:58;12.20;95.90
17284;DHT22;8760;52.248;20.952;2023-04-03T09:04:28;11.70;95.30
17284;DHT22;8760;52.248;20.952;2023-04-03T09:07:02;11.70;94.60
17284;DHT22;8760;52.248;20.952;2023-04-03T09:09:35;11.50;96.50
17284;DHT22;8760;52.248;20.952;2023-04-03T09:12:15;11.10;92.20
17284;DHT22;8760;52.248;20.952;2023-04-03T09:14:49;10.80;98.60
17284;DHT22;8760;52.248;20.952;2023-04-03T09:17:24;11.10;98.10
17284;DHT22;8760;52.248;20.952;2023-04-03T09:20:00;11.40;97.40
17284;DHT22;8760;52.248;20.952;2023-04-03T09:22:32;11.70;95.30
17284;DHT22;8760;52.248;20.952;2023-04-03T09:25:05;12.00;95.00
17284;DHT22;8760;52.248;20.952;2023-04-03T09:27:37;11.80;94.00
17284;DHT22;8760;52.248;20.952;2023-04-03T09:30:05;12.00;90.60
17284;DHT22;8760;52.248;20.952;2023-04-03T09:32:33;11.20;91.00
17284;DHT22;8760;52.248;20.952;2023-04-03T09:35:03;10.20;90.30
17284;DHT22;8760;52.248;20.952;2023-04-03T09:37:36;10.30;94.20
17284;DHT22;8760;52.248;20.952;2023-04-03T09:40:05;10.90;93.70
17284;DHT22;8760;52.248;20.952;2023-04-03T09:42:33;11.70;91.80
17284;DHT22;8760;52.248;20.952;2023-04-03T09:45:23;12.40;91.90
17284;DHT22;8760;52.248;20.952;2023-04-03T09:48:05;13.00;91.50
17284;DHT22;8760;52.248;20.952;2023-04-03T09:50:33;13.70;91.30
17284;DHT22;8760;52.248;20.952;2023-04-03T09:53:05;14.20;88.70
17284;DHT22;8760;52.248;20.952;2023-04-03T09:55:42;14.10;84.90
17284;DHT22;8760;52.248;20.952;2023-04-03T09:58:24;14.30;83.90
17284;DHT22;8760;52.248;20.952;2023-04-03T10:00:57;14.40;81.50
17284;DHT22;8760;52.248;20.952;2023-04-03T10:03:28;14.30;75.80
17284;DHT22;8760;52.248;20.952;2023-04-03T10:05:55;14.30;80.20
17284;DHT22;8760;52.248;20.952;2023-04-03T10:08:26;14.50;81.60
17284;DHT22;8760;52.248;20.952;2023-04-03T10:11:12;14.60;79.80
17284;DHT22;8760;52.248;20.952;2023-04-03T10:13:53;15.30;81.50
17284;DHT22;8760;52.248;20.952;2023-04-03T10:16:26;16.00;76.40
17284;DHT22;8760;52.248;20.952;2023-04-03T10:19:02;15.40;71.90
17284;DHT22;8760;52.248;20.952;2023-04-03T10:21:40;14.30;63.70
17284;DHT22;8760;52.248;20.952;2023-04-03T10:24:13;12.80;64.40
17284;DHT22;8760;52.248;20.952;2023-04-03T10:26:47;12.90;66.00
17284;DHT22;8760;52.248;20.952;2023-04-03T10:29:25;12.70;72.20
17284;DHT22;8760;52.248;20.952;2023-04-03T10:32:01;13.30;69.40
17284;DHT22;8760;52.248;20.952;2023-04-03T10:34:32;13.80;67.20
17284;DHT22;8760;52.248;20.952;2023-04-03T10:37:06;14.20;68.40
17284;DHT22;8760;52.248;20.952;2023-04-03T10:39:41;14.90;66.30
17284;DHT22;8760;52.248;20.952;2023-04-03T10:42:17;15.60;68.30
17284;DHT22;8760;52.248;20.952;2023-04-03T10:44:59;16.10;65.20
17284;DHT22;8760;52.248;20.952;2023-04-03T10:47:34;17.00;63.60
17284;DHT22;8760;52.248;20.952;2023-04-03T10:50:15;17.50;56.50
17284;DHT22;8760;52.248;20.952;2023-04-03T10:52:54;17.70;54.60
17284;DHT22;8760;52.248;20.952;2023-04-03T10:55:32;15.10;31.70
17284;DHT22;8760;52.248;20.952;2023-04-03T10:58:01;15.00;47.60
17284;DHT22;8760;52.248;20.952;2023-04-03T11:00:36;14.00;46.40
17284;DHT22;8760;52.248;20.952;2023-04-03T11:03:10;12.80;49.90
17284;DHT22;8760;52.248;20.952;2023-04-03T11:05:42;12.70;53.50
17284;DHT22;8760;52.248;20.952;2023-04-03T11:08:16;13.50;49.10
17284;DHT22;8760;52.248;20.952;2023-04-03T11:10:49;13.50;43.00
17284;DHT22;8760;52.248;20.952;2023-04-03T11:13:19;13.10;41.80
17284;DHT22;8760;52.248;20.952;2023-04-03T11:15:49;11.90;39.20
17284;DHT22;8760;52.248;20.952;2023-04-03T11:18:21;11.20;47.50
17284;DHT22;8760;52.248;20.952;2023-04-03T11:20:56;11.50;45.30
17284;DHT22;8760;52.248;20.952;2023-04-03T11:23:30;12.50;68.40
17284;DHT22;8760;52.248;20.952;2023-04-03T11:26:07;13.20;46.20
17284;DHT22;8760;52.248;20.952;2023-04-03T11:28:36;12.80;41.60
17284;DHT22;8760;52.248;20.952;2023-04-03T11:31:15;12.20;39.50
17284;DHT22;8760;52.248;20.952;2023-04-03T11:33:54;11.40;40.70
17284;DHT22;8760;52.248;20.952;2023-04-03T11:36:25;10.50;39.40
17284;DHT22;8760;52.248;20.952;2023-04-03T11:38:55;10.30;42.40
17284;DHT22;8760;52.248;20.952;2023-04-03T11:41:29;10.60;44.80
17284;DHT22;8760;52.248;20.952;2023-04-03T11:43:59;10.90;43.60
17284;DHT22;8760;52.248;20.952;2023-04-03T11:46:49;10.70;45.90
17284;DHT22;8760;52.248;20.952;2023-04-03T11:53:01;11.90;43.30
17284;DHT22;8760;52.248;20.952;2023-04-03T11:56:02;12.80;38.40
17284;DHT22;8760;52.248;20.952;2023-04-03T11:58:31;12.90;38.80
17284;DHT22;8760;52.248;20.952;2023-04-03T12:01:04;12.00;35.70
17284;DHT22;8760;52.248;20.952;2023-04-03T12:10:13;10.10;40.20
17284;DHT22;8760;52.248;20.952;2023-04-03T12:12:42;9.60;39.60
17284;DHT22;8760;52.248;20.952;2023-04-03T12:15:24;9.90;42.50
17284;DHT22;8760;52.248;20.952;2023-04-03T12:17:52;10.20;40.40
17284;DHT22;8760;52.248;20.952;2023-04-03T12:20:53;10.20;35.90
17284;DHT22;8760;52.248;20.952;2023-04-03T12:23:28;10.20;43.40
17284;DHT22;8760;52.248;20.952;2023-04-03T12:26:06;10.60;43.30
17284;DHT22;8760;52.248;20.952;2023-04-03T12:28:45;11.00;44.80
17284;DHT22;8760;52.248;20.952;2023-04-03T12:31:14;10.90;38.40
17284;DHT22;8760;52.248;20.952;2023-04-03T12:33:59;10.30;35.60
17284;DHT22;8760;52.248;20.952;2023-04-03T12:36:35;10.10;42.70
17284;DHT22;8760;52.248;20.952;2023-04-03T12:39:26;10.50;43.40
17284;DHT22;8760;52.248;20.952;2023-04-03T12:42:08;11.40;45.90
17284;DHT22;8760;52.248;20.952;2023-04-03T12:44:50;11.60;39.90
17284;DHT22;8760;52.248;20.952;2023-04-03T12:47:25;11.20;35.90
17284;DHT22;8760;52.248;20.952;2023-04-03T12:49:54;10.60;34.90
17284;DHT22;8760;52.248;20.952;2023-04-03T12:52:32;10.00;36.90
17284;DHT22;8760;52.248;20.952;2023-04-03T12:55:00;9.70;39.60
17284;DHT22;8760;52.248;20.952;2023-04-03T12:57:32;10.00;41.50
17284;DHT22;8760;52.248;20.952;2023-04-03T12:59:59;10.30;42.60
17284;DHT22;8760;52.248;20.952;2023-04-03T13:02:27;10.70;37.40
17284;DHT22;8760;52.248;20.952;2023-04-03T13:04:56;11.30;37.80
17284;DHT22;8760;52.248;20.952;2023-04-03T13:07:28;12.00;36.60
17284;DHT22;8760;52.248;20.952;2023-04-03T13:10:03;11.60;34.20
17284;DHT22;8760;52.248;20.952;2023-04-03T13:12:33;11.10;35.40
17284;DHT22;8760;52.248;20.952;2023-04-03T13:15:02;10.40;35.30
17284;DHT22;8760;52.248;20.952;2023-04-03T13:17:30;9.90;35.60
17284;DHT22;8760;52.248;20.952;2023-04-03T13:20:13;9.50;36.60
17284;DHT22;8760;52.248;20.952;2023-04-03T13:22:47;9.00;36.90
17284;DHT22;8760;52.248;20.952;2023-04-03T13:25:18;8.90;37.40
17284;DHT22;8760;52.248;20.952;2023-04-03T13:27:48;9.40;42.80
17284;DHT22;8760;52.248;20.952;2023-04-03T13:30:21;10.10;37.80
17284;DHT22;8760;52.248;20.952;2023-04-03T13:32:50;10.10;34.10
17284;DHT22;8760;52.248;20.952;2023-04-03T13:35:33;9.70;32.20
17284;DHT22;8760;52.248;20.952;2023-04-03T13:38:03;9.30;35.90
17284;DHT22;8760;52.248;20.952;2023-04-03T13:40:31;9.00;38.10
17284;DHT22;8760;52.248;20.952;2023-04-03T13:43:05;8.80;37.00
17284;DHT22;8760;52.248;20.952;2023-04-03T13:45:54;8.70;36.50
17284;DHT22;8760;52.248;20.952;2023-04-03T13:48:22;8.70;38.40
17284;DHT22;8760;52.248;20.952;2023-04-03T13:50:59;8.80;39.70
17284;DHT22;8760;52.248;20.952;2023-04-03T13:53:27;8.70;39.50
17284;DHT22;8760;52.248;20.952;2023-04-03T13:56:04;8.70;38.70
17284;DHT22;8760;52.248;20.952;2023-04-03T13:58:34;8.80;40.40
17284;DHT22;8760;52.248;20.952;2023-04-03T14:01:08;9.40;42.60
17284;DHT22;8760;52.248;20.952;2023-04-03T14:03:42;10.30;38.20
17284;DHT22;8760;52.248;20.952;2023-04-03T14:06:10;10.30;35.00
17284;DHT22;8760;52.248;20.952;2023-04-03T14:08:38;10.20;34.40
17284;DHT22;8760;52.248;20.952;2023-04-03T14:11:05;9.70;33.70
17284;DHT22;8760;52.248;20.952;2023-04-03T14:13:34;9.30;36.00
17284;DHT22;8760;52.248;20.952;2023-04-03T14:16:01;9.00;35.00
17284;DHT22;8760;52.248;20.952;2023-04-03T14:18:28;8.80;35.10
17284;DHT22;8760;52.248;20.952;2023-04-03T14:20:55;8.50;38.20
17284;DHT22;8760;52.248;20.952;2023-04-03T14:23:22;8.20;36.20
17284;DHT22;8760;52.248;20.952;2023-04-03T14:25:49;8.00;36.00
17284;DHT22;8760;52.248;20.952;2023-04-03T14:28:18;7.80;36.40
17284;DHT22;8760;52.248;20.952;2023-04-03T14:30:48;7.70;38.50
17284;DHT22;8760;52.248;20.952;2023-04-03T14:33:18;7.70;40.80
17284;DHT22;8760;52.248;20.952;2023-04-03T14:35:46;7.60;42.00
17284;DHT22;8760;52.248;20.952;2023-04-03T14:38:23;7.50;40.70
17284;DHT22;8760;52.248;20.952;2023-04-03T14:40:51;7.40;39.30
17284;DHT22;8760;52.248;20.952;2023-04-03T14:43:18;7.40;38.40
17284;DHT22;8760;52.248;20.952;2023-04-03T14:45:47;7.40;35.70
17284;DHT22;8760;52.248;20.952;2023-04-03T14:48:18;7.30;35.80
17284;DHT22;8760;52.248;20.952;2023-04-03T14:50:46;7.20;38.40
17284;DHT22;8760;52.248;20.952;2023-04-03T14:53:14;7.10;37.90
17284;DHT22;8760;52.248;20.952;2023-04-03T14:55:43;6.90;39.40
17284;DHT22;8760;52.248;20.952;2023-04-03T14:58:16;6.80;41.80
17284;DHT22;8760;52.248;20.952;2023-04-03T15:00:43;6.70;45.40
17284;DHT22;8760;52.248;20.952;2023-04-03T15:03:16;6.70;43.50
17284;DHT22;8760;52.248;20.952;2023-04-03T15:05:45;6.70;43.00
17284;DHT22;8760;52.248;20.952;2023-04-03T15:08:21;6.70;44.10
17284;DHT22;8760;52.248;20.952;2023-04-03T15:10:50;6.80;43.00
17284;DHT22;8760;52.248;20.952;2023-04-03T15:13:18;6.80;41.70
17284;DHT22;8760;52.248;20.952;2023-04-03T15:15:46;6.80;39.80
17284;DHT22;8760;52.248;20.952;2023-04-03T15:18:20;6.70;44.10
17284;DHT22;8760;52.248;20.952;2023-04-03T15:20:48;6.70;41.50
17284;DHT22;8760;52.248;20.952;2023-04-03T15:23:16;6.60;41.80
17284;DHT22;8760;52.248;20.952;2023-04-03T15:25:44;6.40;42.10
17284;DHT22;8760;52.248;20.952;2023-04-03T15:28:18;6.40;45.50
17284;DHT22;8760;52.248;20.952;2023-04-03T15:30:45;6.40;41.90
17284;DHT22;8760;52.248;20.952;2023-04-03T15:33:12;6.30;45.20
17284;DHT22;8760;52.248;20.952;2023-04-03T15:35:42;6.30;43.90
17284;DHT22;8760;52.248;20.952;2023-04-03T15:38:10;6.20;47.00
17284;DHT22;8760;52.248;20.952;2023-04-03T15:40:37;6.20;47.40
17284;DHT22;8760;52.248;20.952;2023-04-03T15:43:04;6.10;50.60
17284;DHT22;8760;52.248;20.952;2023-04-03T15:45:32;6.10;47.40
17284;DHT22;8760;52.248;20.952;2023-04-03T15:48:00;6.10;48.40
17284;DHT22;8760;52.248;20.952;2023-04-03T15:50:28;6.10;50.40
17284;DHT22;8760;52.248;20.952;2023-04-03T15:52:56;6.00;49.30
17284;DHT22;8760;52.248;20.952;2023-04-03T15:55:24;6.00;52.70
17284;DHT22;8760;52.248;20.952;2023-04-03T15:57:52;6.00;52.20
17284;DHT22;8760;52.248;20.952;2023-04-03T16:00:20;6.00;53.60
17284;DHT22;8760;52.248;20.952;2023-04-03T16:02:49;5.90;55.50
17284;DHT22;8760;52.248;20.952;2023-04-03T16:05:17;5.90;55.30
17284;DHT22;8760;52.248;20.952;2023-04-03T16:07:44;5.90;54.80
17284;DHT22;8760;52.248;20.952;2023-04-03T16:10:14;5.70;57.70
17284;DHT22;8760;52.248;20.952;2023-04-03T16:12:42;5.70;61.70
17284;DHT22;8760;52.248;20.952;2023-04-03T16:15:10;5.60;60.50